Terminal Aerodrome Forecast
Issued by NWS Green Bay, WI

Home | Current Version | Previous Version | Text Only | Print | Product List | Glossary Off
Versions: 1 2 3 4 5 6 7 8 9 10 11 12 13 14 15 16 17 18 19 20 21 22 23 24 25 26 27 28 29 30 31 32 33 34

000
FTUS43 KGRB 281700
TAFGRB
TAF
KGRB 281720Z 2818/2918 24004KT P6SM SCT050 BKN200
     FM290000 19004KT P6SM SCT250
     FM290700 VRB03KT 4SM BR SCT250
     FM291300 33007KT 5SM BR VCSH SCT025 BKN060
     FM291600 35010G18KT P6SM VCSH SCT011 OVC025
      TEMPO 2916/2918 5SM -SHRA BR BKN011=

USA.gov is the U.S. government's official web portal to all federal, state and local government web resources and services.